sensor_id;sensor_type;location;lat;lon;timestamp;P1;durP1;ratioP1;P2;durP2;ratioP2
10120;SDS011;5100;45.176;5.714;2022-08-25T00:01:58;3.25;;;2.95;;
10120;SDS011;5100;45.176;5.714;2022-08-25T00:04:27;3.15;;;2.75;;
10120;SDS011;5100;45.176;5.714;2022-08-25T00:06:56;4.53;;;3.10;;
10120;SDS011;5100;45.176;5.714;2022-08-25T00:09:24;3.58;;;3.28;;
10120;SDS011;5100;45.176;5.714;2022-08-25T00:11:52;5.18;;;3.00;;
10120;SDS011;5100;45.176;5.714;2022-08-25T00:14:20;3.35;;;3.00;;
10120;SDS011;5100;45.176;5.714;2022-08-25T00:16:49;8.80;;;3.10;;
10120;SDS011;5100;45.176;5.714;2022-08-25T00:19:17;5.78;;;3.50;;
10120;SDS011;5100;45.176;5.714;2022-08-25T00:21:46;4.87;;;3.17;;
10120;SDS011;5100;45.176;5.714;2022-08-25T00:24:13;3.12;;;2.83;;
10120;SDS011;5100;45.176;5.714;2022-08-25T00:26:42;3.30;;;3.00;;
10120;SDS011;5100;45.176;5.714;2022-08-25T00:29:09;4.80;;;3.45;;
10120;SDS011;5100;45.176;5.714;2022-08-25T00:31:36;3.97;;;3.17;;
10120;SDS011;5100;45.176;5.714;2022-08-25T00:34:04;5.22;;;3.40;;
10120;SDS011;5100;45.176;5.714;2022-08-25T00:36:33;3.85;;;3.47;;
10120;SDS011;5100;45.176;5.714;2022-08-25T00:38:59;6.20;;;3.55;;
10120;SDS011;5100;45.176;5.714;2022-08-25T00:41:27;3.62;;;3.33;;
10120;SDS011;5100;45.176;5.714;2022-08-25T00:44:03;3.90;;;3.58;;
10120;SDS011;5100;45.176;5.714;2022-08-25T00:46:39;7.93;;;4.05;;
10120;SDS011;5100;45.176;5.714;2022-08-25T00:49:14;4.62;;;3.85;;
10120;SDS011;5100;45.176;5.714;2022-08-25T00:51:51;4.55;;;3.47;;
10120;SDS011;5100;45.176;5.714;2022-08-25T00:54:37;4.00;;;3.60;;
10120;SDS011;5100;45.176;5.714;2022-08-25T00:57:35;4.55;;;3.15;;
10120;SDS011;5100;45.176;5.714;2022-08-25T01:00:08;6.28;;;3.85;;
10120;SDS011;5100;45.176;5.714;2022-08-25T01:02:38;4.80;;;3.50;;
10120;SDS011;5100;45.176;5.714;2022-08-25T01:05:04;6.30;;;3.40;;
10120;SDS011;5100;45.176;5.714;2022-08-25T01:07:30;8.00;;;3.10;;
10120;SDS011;5100;45.176;5.714;2022-08-25T01:09:57;5.78;;;3.67;;
10120;SDS011;5100;45.176;5.714;2022-08-25T01:12:25;3.50;;;3.20;;
10120;SDS011;5100;45.176;5.714;2022-08-25T01:14:51;3.35;;;3.05;;
10120;SDS011;5100;45.176;5.714;2022-08-25T01:17:18;4.45;;;3.78;;
10120;SDS011;5100;45.176;5.714;2022-08-25T01:19:46;4.87;;;3.28;;
10120;SDS011;5100;45.176;5.714;2022-08-25T01:22:12;4.43;;;3.33;;
10120;SDS011;5100;45.176;5.714;2022-08-25T01:24:42;5.20;;;3.90;;
10120;SDS011;5100;45.176;5.714;2022-08-25T01:27:30;3.72;;;3.40;;
10120;SDS011;5100;45.176;5.714;2022-08-25T01:29:56;3.95;;;3.20;;
10120;SDS011;5100;45.176;5.714;2022-08-25T01:32:22;4.03;;;3.15;;
10120;SDS011;5100;45.176;5.714;2022-08-25T01:34:48;5.60;;;3.30;;
10120;SDS011;5100;45.176;5.714;2022-08-25T01:37:14;3.42;;;3.08;;
10120;SDS011;5100;45.176;5.714;2022-08-25T01:39:41;5.90;;;3.37;;
10120;SDS011;5100;45.176;5.714;2022-08-25T01:42:12;4.00;;;3.65;;
10120;SDS011;5100;45.176;5.714;2022-08-25T01:44:48;5.75;;;3.67;;
10120;SDS011;5100;45.176;5.714;2022-08-25T01:47:14;4.00;;;3.28;;
10120;SDS011;5100;45.176;5.714;2022-08-25T01:49:41;5.90;;;3.65;;
10120;SDS011;5100;45.176;5.714;2022-08-25T01:52:11;4.45;;;3.28;;
10120;SDS011;5100;45.176;5.714;2022-08-25T01:54:44;5.35;;;3.45;;
10120;SDS011;5100;45.176;5.714;2022-08-25T01:57:10;4.75;;;3.47;;
10120;SDS011;5100;45.176;5.714;2022-08-25T01:59:36;4.15;;;3.12;;
10120;SDS011;5100;45.176;5.714;2022-08-25T02:02:03;4.50;;;3.45;;
10120;SDS011;5100;45.176;5.714;2022-08-25T02:04:30;3.87;;;3.50;;
10120;SDS011;5100;45.176;5.714;2022-08-25T02:07:00;3.70;;;3.40;;
10120;SDS011;5100;45.176;5.714;2022-08-25T02:09:28;3.15;;;2.95;;
10120;SDS011;5100;45.176;5.714;2022-08-25T02:11:54;3.90;;;3.50;;
10120;SDS011;5100;45.176;5.714;2022-08-25T02:14:21;5.55;;;3.37;;
10120;SDS011;5100;45.176;5.714;2022-08-25T02:16:49;4.75;;;3.25;;
10120;SDS011;5100;45.176;5.714;2022-08-25T02:19:18;4.40;;;3.58;;
10120;SDS011;5100;45.176;5.714;2022-08-25T02:21:45;3.62;;;3.25;;
10120;SDS011;5100;45.176;5.714;2022-08-25T02:24:12;5.37;;;3.40;;
10120;SDS011;5100;45.176;5.714;2022-08-25T02:26:39;4.40;;;3.37;;
10120;SDS011;5100;45.176;5.714;2022-08-25T02:29:06;5.18;;;3.35;;
10120;SDS011;5100;45.176;5.714;2022-08-25T02:31:32;6.22;;;3.03;;
10120;SDS011;5100;45.176;5.714;2022-08-25T02:33:59;4.15;;;3.50;;
10120;SDS011;5100;45.176;5.714;2022-08-25T02:36:26;4.10;;;3.70;;
10120;SDS011;5100;45.176;5.714;2022-08-25T02:38:53;3.78;;;3.42;;
10120;SDS011;5100;45.176;5.714;2022-08-25T02:41:21;4.12;;;3.70;;
10120;SDS011;5100;45.176;5.714;2022-08-25T02:43:49;5.75;;;3.35;;
10120;SDS011;5100;45.176;5.714;2022-08-25T02:46:16;4.80;;;3.50;;
10120;SDS011;5100;45.176;5.714;2022-08-25T02:48:45;3.53;;;3.22;;
10120;SDS011;5100;45.176;5.714;2022-08-25T02:51:12;5.80;;;3.60;;
10120;SDS011;5100;45.176;5.714;2022-08-25T02:53:39;3.78;;;3.47;;
10120;SDS011;5100;45.176;5.714;2022-08-25T02:56:07;4.78;;;3.83;;
10120;SDS011;5100;45.176;5.714;2022-08-25T02:58:35;4.28;;;3.87;;
10120;SDS011;5100;45.176;5.714;2022-08-25T03:01:02;4.95;;;3.78;;
10120;SDS011;5100;45.176;5.714;2022-08-25T03:03:29;3.95;;;3.37;;
10120;SDS011;5100;45.176;5.714;2022-08-25T03:05:55;4.35;;;3.50;;
10120;SDS011;5100;45.176;5.714;2022-08-25T03:08:21;4.70;;;3.40;;
10120;SDS011;5100;45.176;5.714;2022-08-25T03:10:48;5.60;;;3.87;;
10120;SDS011;5100;45.176;5.714;2022-08-25T03:13:14;4.70;;;3.70;;
10120;SDS011;5100;45.176;5.714;2022-08-25T03:15:41;5.57;;;3.70;;
10120;SDS011;5100;45.176;5.714;2022-08-25T03:18:08;3.83;;;3.53;;
10120;SDS011;5100;45.176;5.714;2022-08-25T03:20:36;4.00;;;3.70;;
10120;SDS011;5100;45.176;5.714;2022-08-25T03:23:03;5.68;;;3.70;;
10120;SDS011;5100;45.176;5.714;2022-08-25T03:25:30;5.65;;;4.07;;
10120;SDS011;5100;45.176;5.714;2022-08-25T03:28:15;3.97;;;3.67;;
10120;SDS011;5100;45.176;5.714;2022-08-25T03:30:42;5.47;;;4.00;;
10120;SDS011;5100;45.176;5.714;2022-08-25T03:33:08;6.22;;;3.80;;
10120;SDS011;5100;45.176;5.714;2022-08-25T03:35:34;4.43;;;4.03;;
10120;SDS011;5100;45.176;5.714;2022-08-25T03:38:01;6.03;;;4.00;;
10120;SDS011;5100;45.176;5.714;2022-08-25T03:40:27;4.03;;;3.62;;
10120;SDS011;5100;45.176;5.714;2022-08-25T03:42:54;6.78;;;4.10;;
10120;SDS011;5100;45.176;5.714;2022-08-25T03:45:21;4.00;;;3.70;;
10120;SDS011;5100;45.176;5.714;2022-08-25T03:47:49;6.30;;;3.85;;
10120;SDS011;5100;45.176;5.714;2022-08-25T03:50:16;4.78;;;3.65;;
10120;SDS011;5100;45.176;5.714;2022-08-25T03:52:44;3.83;;;3.50;;
10120;SDS011;5100;45.176;5.714;2022-08-25T03:55:19;5.03;;;3.67;;
10120;SDS011;5100;45.176;5.714;2022-08-25T03:57:46;5.10;;;3.90;;
10120;SDS011;5100;45.176;5.714;2022-08-25T04:00:12;6.55;;;3.83;;
10120;SDS011;5100;45.176;5.714;2022-08-25T04:02:39;5.30;;;3.87;;
10120;SDS011;5100;45.176;5.714;2022-08-25T04:05:06;4.32;;;3.75;;
10120;SDS011;5100;45.176;5.714;2022-08-25T04:07:32;4.10;;;3.70;;
10120;SDS011;5100;45.176;5.714;2022-08-25T04:09:59;4.32;;;3.78;;
10120;SDS011;5100;45.176;5.714;2022-08-25T04:12:25;4.72;;;3.42;;
10120;SDS011;5100;45.176;5.714;2022-08-25T04:14:50;4.32;;;3.65;;
10120;SDS011;5100;45.176;5.714;2022-08-25T04:17:17;4.32;;;3.92;;
10120;SDS011;5100;45.176;5.714;2022-08-25T04:19:43;4.55;;;3.58;;
10120;SDS011;5100;45.176;5.714;2022-08-25T04:22:09;4.10;;;3.60;;
10120;SDS011;5100;45.176;5.714;2022-08-25T04:24:35;4.37;;;3.97;;
10120;SDS011;5100;45.176;5.714;2022-08-25T04:27:01;5.80;;;3.92;;
10120;SDS011;5100;45.176;5.714;2022-08-25T04:29:27;4.32;;;3.97;;
10120;SDS011;5100;45.176;5.714;2022-08-25T04:31:54;3.92;;;3.62;;
10120;SDS011;5100;45.176;5.714;2022-08-25T04:34:20;4.32;;;3.92;;
10120;SDS011;5100;45.176;5.714;2022-08-25T04:36:48;3.85;;;3.33;;
10120;SDS011;5100;45.176;5.714;2022-08-25T04:39:16;4.35;;;3.53;;
10120;SDS011;5100;45.176;5.714;2022-08-25T04:41:44;5.12;;;3.83;;
10120;SDS011;5100;45.176;5.714;2022-08-25T04:44:11;3.78;;;3.47;;
10120;SDS011;5100;45.176;5.714;2022-08-25T04:46:37;4.28;;;3.83;;
10120;SDS011;5100;45.176;5.714;2022-08-25T04:49:03;4.18;;;3.70;;
10120;SDS011;5100;45.176;5.714;2022-08-25T04:51:31;4.50;;;3.92;;
10120;SDS011;5100;45.176;5.714;2022-08-25T04:54:02;4.45;;;3.83;;
10120;SDS011;5100;45.176;5.714;2022-08-25T04:56:30;4.85;;;3.75;;
10120;SDS011;5100;45.176;5.714;2022-08-25T04:59:08;5.47;;;3.75;;
10120;SDS011;5100;45.176;5.714;2022-08-25T05:01:37;5.15;;;3.92;;
10120;SDS011;5100;45.176;5.714;2022-08-25T05:04:05;5.87;;;3.92;;
10120;SDS011;5100;45.176;5.714;2022-08-25T05:06:33;4.85;;;3.95;;
10120;SDS011;5100;45.176;5.714;2022-08-25T05:08:59;6.45;;;3.97;;
10120;SDS011;5100;45.176;5.714;2022-08-25T05:11:26;7.65;;;4.18;;
10120;SDS011;5100;45.176;5.714;2022-08-25T05:13:52;7.00;;;4.00;;
10120;SDS011;5100;45.176;5.714;2022-08-25T05:16:20;6.95;;;4.37;;
10120;SDS011;5100;45.176;5.714;2022-08-25T05:18:48;5.35;;;4.12;;
10120;SDS011;5100;45.176;5.714;2022-08-25T05:21:16;4.35;;;3.95;;
10120;SDS011;5100;45.176;5.714;2022-08-25T05:23:46;5.47;;;3.75;;
10120;SDS011;5100;45.176;5.714;2022-08-25T05:26:17;6.90;;;3.97;;
10120;SDS011;5100;45.176;5.714;2022-08-25T05:28:44;4.40;;;3.83;;
10120;SDS011;5100;45.176;5.714;2022-08-25T05:31:12;6.78;;;4.40;;
10120;SDS011;5100;45.176;5.714;2022-08-25T05:33:39;4.05;;;3.75;;
10120;SDS011;5100;45.176;5.714;2022-08-25T05:36:06;7.28;;;3.75;;
10120;SDS011;5100;45.176;5.714;2022-08-25T05:38:34;8.38;;;4.57;;
10120;SDS011;5100;45.176;5.714;2022-08-25T05:41:03;7.40;;;4.40;;
10120;SDS011;5100;45.176;5.714;2022-08-25T05:43:31;10.55;;;4.90;;
10120;SDS011;5100;45.176;5.714;2022-08-25T05:45:58;6.50;;;4.60;;
10120;SDS011;5100;45.176;5.714;2022-08-25T05:48:25;4.95;;;4.45;;
10120;SDS011;5100;45.176;5.714;2022-08-25T05:50:52;5.12;;;3.95;;
10120;SDS011;5100;45.176;5.714;2022-08-25T05:53:19;4.72;;;3.97;;
10120;SDS011;5100;45.176;5.714;2022-08-25T05:55:45;7.60;;;4.25;;
10120;SDS011;5100;45.176;5.714;2022-08-25T05:58:11;5.40;;;4.90;;
10120;SDS011;5100;45.176;5.714;2022-08-25T06:00:38;5.50;;;4.80;;
10120;SDS011;5100;45.176;5.714;2022-08-25T06:03:04;6.68;;;4.00;;
10120;SDS011;5100;45.176;5.714;2022-08-25T06:05:31;4.80;;;4.30;;
10120;SDS011;5100;45.176;5.714;2022-08-25T06:07:57;5.07;;;3.87;;
10120;SDS011;5100;45.176;5.714;2022-08-25T06:10:24;4.40;;;4.00;;
10120;SDS011;5100;45.176;5.714;2022-08-25T06:12:50;3.87;;;3.50;;
10120;SDS011;5100;45.176;5.714;2022-08-25T06:15:17;5.30;;;4.03;;
10120;SDS011;5100;45.176;5.714;2022-08-25T06:17:46;5.00;;;4.00;;
10120;SDS011;5100;45.176;5.714;2022-08-25T06:20:14;5.78;;;4.25;;
10120;SDS011;5100;45.176;5.714;2022-08-25T06:22:41;5.62;;;4.18;;
10120;SDS011;5100;45.176;5.714;2022-08-25T06:25:08;4.35;;;3.95;;
10120;SDS011;5100;45.176;5.714;2022-08-25T06:27:35;6.55;;;3.87;;
10120;SDS011;5100;45.176;5.714;2022-08-25T06:30:03;4.20;;;3.80;;
10120;SDS011;5100;45.176;5.714;2022-08-25T06:32:31;4.22;;;3.72;;
10120;SDS011;5100;45.176;5.714;2022-08-25T06:35:00;4.10;;;3.80;;
10120;SDS011;5100;45.176;5.714;2022-08-25T06:37:30;4.50;;;3.78;;
10120;SDS011;5100;45.176;5.714;2022-08-25T06:39:56;5.50;;;3.95;;
10120;SDS011;5100;45.176;5.714;2022-08-25T06:42:23;5.43;;;3.72;;
10120;SDS011;5100;45.176;5.714;2022-08-25T06:44:49;5.10;;;3.72;;
10120;SDS011;5100;45.176;5.714;2022-08-25T06:47:15;4.40;;;3.97;;
10120;SDS011;5100;45.176;5.714;2022-08-25T06:49:42;4.53;;;3.87;;
10120;SDS011;5100;45.176;5.714;2022-08-25T06:52:09;4.10;;;3.70;;
10120;SDS011;5100;45.176;5.714;2022-08-25T06:54:36;5.32;;;3.55;;
10120;SDS011;5100;45.176;5.714;2022-08-25T06:57:02;6.90;;;3.67;;
10120;SDS011;5100;45.176;5.714;2022-08-25T06:59:29;8.63;;;3.72;;
10120;SDS011;5100;45.176;5.714;2022-08-25T07:01:55;4.07;;;3.75;;
10120;SDS011;5100;45.176;5.714;2022-08-25T07:04:21;8.50;;;4.00;;
10120;SDS011;5100;45.176;5.714;2022-08-25T07:06:47;4.22;;;3.70;;
10120;SDS011;5100;45.176;5.714;2022-08-25T07:09:13;6.35;;;3.85;;
10120;SDS011;5100;45.176;5.714;2022-08-25T07:11:40;9.48;;;4.20;;
10120;SDS011;5100;45.176;5.714;2022-08-25T07:14:07;8.98;;;4.03;;
10120;SDS011;5100;45.176;5.714;2022-08-25T07:16:36;4.62;;;4.22;;
10120;SDS011;5100;45.176;5.714;2022-08-25T07:19:03;6.55;;;4.15;;
10120;SDS011;5100;45.176;5.714;2022-08-25T07:21:30;5.18;;;3.78;;
10120;SDS011;5100;45.176;5.714;2022-08-25T07:23:58;7.95;;;3.90;;
10120;SDS011;5100;45.176;5.714;2022-08-25T07:26:27;8.25;;;4.30;;
10120;SDS011;5100;45.176;5.714;2022-08-25T07:28:55;5.00;;;3.85;;
10120;SDS011;5100;45.176;5.714;2022-08-25T07:31:23;7.43;;;3.10;;
10120;SDS011;5100;45.176;5.714;2022-08-25T07:33:49;7.53;;;3.70;;
10120;SDS011;5100;45.176;5.714;2022-08-25T07:36:34;4.03;;;3.62;;
10120;SDS011;5100;45.176;5.714;2022-08-25T07:39:00;7.07;;;3.80;;
10120;SDS011;5100;45.176;5.714;2022-08-25T07:41:30;8.18;;;3.83;;
10120;SDS011;5100;45.176;5.714;2022-08-25T07:44:00;4.87;;;3.47;;
10120;SDS011;5100;45.176;5.714;2022-08-25T07:46:26;6.00;;;3.90;;
10120;SDS011;5100;45.176;5.714;2022-08-25T07:48:52;5.25;;;3.83;;
10120;SDS011;5100;45.176;5.714;2022-08-25T07:51:18;6.25;;;4.35;;
10120;SDS011;5100;45.176;5.714;2022-08-25T07:53:47;5.22;;;3.40;;
10120;SDS011;5100;45.176;5.714;2022-08-25T07:56:14;5.28;;;3.80;;
10120;SDS011;5100;45.176;5.714;2022-08-25T07:58:42;4.18;;;3.30;;
10120;SDS011;5100;45.176;5.714;2022-08-25T08:01:15;4.20;;;3.83;;
10120;SDS011;5100;45.176;5.714;2022-08-25T08:03:43;5.15;;;3.58;;
10120;SDS011;5100;45.176;5.714;2022-08-25T08:06:10;4.07;;;3.67;;
10120;SDS011;5100;45.176;5.714;2022-08-25T08:08:39;5.55;;;3.60;;
10120;SDS011;5100;45.176;5.714;2022-08-25T08:11:16;5.75;;;3.62;;
10120;SDS011;5100;45.176;5.714;2022-08-25T08:13:45;4.20;;;3.80;;
10120;SDS011;5100;45.176;5.714;2022-08-25T08:16:13;4.43;;;3.28;;
10120;SDS011;5100;45.176;5.714;2022-08-25T08:18:42;7.43;;;4.22;;
10120;SDS011;5100;45.176;5.714;2022-08-25T08:21:17;4.90;;;3.90;;
10120;SDS011;5100;45.176;5.714;2022-08-25T08:24:04;4.07;;;3.70;;
10120;SDS011;5100;45.176;5.714;2022-08-25T08:26:30;4.60;;;3.72;;
10120;SDS011;5100;45.176;5.714;2022-08-25T08:28:57;4.30;;;3.35;;
10120;SDS011;5100;45.176;5.714;2022-08-25T08:31:23;3.87;;;3.58;;
10120;SDS011;5100;45.176;5.714;2022-08-25T08:33:53;4.45;;;3.80;;
10120;SDS011;5100;45.176;5.714;2022-08-25T08:36:21;4.70;;;3.72;;
10120;SDS011;5100;45.176;5.714;2022-08-25T08:38:48;4.05;;;3.50;;
10120;SDS011;5100;45.176;5.714;2022-08-25T08:47:27;5.95;;;3.72;;
10120;SDS011;5100;45.176;5.714;2022-08-25T08:50:15;4.03;;;3.62;;
10120;SDS011;5100;45.176;5.714;2022-08-25T08:52:49;5.90;;;3.50;;
10120;SDS011;5100;45.176;5.714;2022-08-25T08:55:45;6.05;;;3.70;;
10120;SDS011;5100;45.176;5.714;2022-08-25T08:58:19;3.70;;;3.40;;
10120;SDS011;5100;45.176;5.714;2022-08-25T09:00:48;4.28;;;3.75;;
10120;SDS011;5100;45.176;5.714;2022-08-25T09:06:02;5.43;;;3.72;;
10120;SDS011;5100;45.176;5.714;2022-08-25T09:08:33;4.62;;;4.12;;
10120;SDS011;5100;45.176;5.714;2022-08-25T09:11:02;4.75;;;3.87;;
10120;SDS011;5100;45.176;5.714;2022-08-25T09:16:26;5.95;;;3.80;;
10120;SDS011;5100;45.176;5.714;2022-08-25T09:22:08;4.78;;;3.47;;
10120;SDS011;5100;45.176;5.714;2022-08-25T09:24:42;4.68;;;3.90;;
10120;SDS011;5100;45.176;5.714;2022-08-25T09:30:36;4.90;;;3.53;;
10120;SDS011;5100;45.176;5.714;2022-08-25T09:33:14;3.72;;;3.42;;
10120;SDS011;5100;45.176;5.714;2022-08-25T09:35:44;4.05;;;3.70;;
10120;SDS011;5100;45.176;5.714;2022-08-25T09:38:12;6.47;;;3.70;;
10120;SDS011;5100;45.176;5.714;2022-08-25T09:40:40;4.10;;;3.70;;
10120;SDS011;5100;45.176;5.714;2022-08-25T09:45:56;5.18;;;3.60;;
10120;SDS011;5100;45.176;5.714;2022-08-25T09:50:59;3.75;;;3.45;;
10120;SDS011;5100;45.176;5.714;2022-08-25T09:53:34;5.87;;;3.30;;
10120;SDS011;5100;45.176;5.714;2022-08-25T09:56:02;5.07;;;3.30;;
10120;SDS011;5100;45.176;5.714;2022-08-25T09:58:31;4.03;;;3.70;;
10120;SDS011;5100;45.176;5.714;2022-08-25T10:01:11;5.97;;;3.67;;
10120;SDS011;5100;45.176;5.714;2022-08-25T10:03:56;4.20;;;3.80;;
10120;SDS011;5100;45.176;5.714;2022-08-25T10:06:28;3.70;;;3.35;;
10120;SDS011;5100;45.176;5.714;2022-08-25T10:09:06;3.92;;;3.62;;
10120;SDS011;5100;45.176;5.714;2022-08-25T10:11:37;3.97;;;3.58;;
10120;SDS011;5100;45.176;5.714;2022-08-25T10:16:42;3.97;;;3.50;;
10120;SDS011;5100;45.176;5.714;2022-08-25T10:19:10;3.47;;;3.17;;
10120;SDS011;5100;45.176;5.714;2022-08-25T10:21:37;5.28;;;3.80;;
10120;SDS011;5100;45.176;5.714;2022-08-25T10:24:08;3.90;;;3.50;;
10120;SDS011;5100;45.176;5.714;2022-08-25T10:32:42;3.97;;;3.35;;
10120;SDS011;5100;45.176;5.714;2022-08-25T10:37:50;4.03;;;3.65;;
10120;SDS011;5100;45.176;5.714;2022-08-25T10:40:43;4.22;;;3.92;;
10120;SDS011;5100;45.176;5.714;2022-08-25T10:43:51;10.02;;;5.97;;
10120;SDS011;5100;45.176;5.714;2022-08-25T10:46:26;4.97;;;4.57;;
10120;SDS011;5100;45.176;5.714;2022-08-25T10:49:26;4.78;;;4.37;;
10120;SDS011;5100;45.176;5.714;2022-08-25T10:52:02;5.00;;;4.30;;
10120;SDS011;5100;45.176;5.714;2022-08-25T10:54:49;4.37;;;3.87;;
10120;SDS011;5100;45.176;5.714;2022-08-25T11:00:13;3.78;;;3.47;;
10120;SDS011;5100;45.176;5.714;2022-08-25T11:07:59;5.12;;;3.28;;
10120;SDS011;5100;45.176;5.714;2022-08-25T11:13:10;5.07;;;3.60;;
10120;SDS011;5100;45.176;5.714;2022-08-25T11:15:48;10.73;;;3.20;;
10120;SDS011;5100;45.176;5.714;2022-08-25T11:18:20;5.90;;;3.05;;
10120;SDS011;5100;45.176;5.714;2022-08-25T11:20:58;4.35;;;3.00;;
10120;SDS011;5100;45.176;5.714;2022-08-25T11:23:38;2.85;;;2.60;;
10120;SDS011;5100;45.176;5.714;2022-08-25T11:26:10;3.47;;;2.53;;
10120;SDS011;5100;45.176;5.714;2022-08-25T11:28:52;7.35;;;2.35;;
10120;SDS011;5100;45.176;5.714;2022-08-25T11:31:27;4.80;;;2.40;;
10120;SDS011;5100;45.176;5.714;2022-08-25T11:33:54;7.90;;;2.33;;
10120;SDS011;5100;45.176;5.714;2022-08-25T11:36:33;5.37;;;2.33;;
10120;SDS011;5100;45.176;5.714;2022-08-25T11:47:31;4.15;;;2.12;;
10120;SDS011;5100;45.176;5.714;2022-08-25T11:55:17;4.90;;;1.92;;
10120;SDS011;5100;45.176;5.714;2022-08-25T11:57:45;3.47;;;2.40;;
10120;SDS011;5100;45.176;5.714;2022-08-25T12:00:34;3.22;;;2.05;;
10120;SDS011;5100;45.176;5.714;2022-08-25T12:14:15;2.72;;;2.10;;
10120;SDS011;5100;45.176;5.714;2022-08-25T12:19:30;1.90;;;1.80;;
10120;SDS011;5100;45.176;5.714;2022-08-25T12:24:55;2.58;;;1.98;;
10120;SDS011;5100;45.176;5.714;2022-08-25T12:27:29;2.00;;;1.83;;
10120;SDS011;5100;45.176;5.714;2022-08-25T12:30:20;1.95;;;1.60;;
10120;SDS011;5100;45.176;5.714;2022-08-25T12:38:32;1.98;;;1.77;;
10120;SDS011;5100;45.176;5.714;2022-08-25T12:41:15;3.83;;;1.60;;
10120;SDS011;5100;45.176;5.714;2022-08-25T12:43:48;2.50;;;1.73;;
10120;SDS011;5100;45.176;5.714;2022-08-25T12:49:10;3.30;;;1.62;;
10120;SDS011;5100;45.176;5.714;2022-08-25T12:51:50;3.33;;;1.70;;
10120;SDS011;5100;45.176;5.714;2022-08-25T12:57:32;2.30;;;1.50;;
10120;SDS011;5100;45.176;5.714;2022-08-25T13:05:43;1.83;;;1.40;;
10120;SDS011;5100;45.176;5.714;2022-08-25T13:16:56;1.40;;;1.30;;
10120;SDS011;5100;45.176;5.714;2022-08-25T13:19:24;1.48;;;1.37;;
10120;SDS011;5100;45.176;5.714;2022-08-25T13:21:51;1.73;;;1.62;;
10120;SDS011;5100;45.176;5.714;2022-08-25T13:26:54;1.45;;;1.30;;
10120;SDS011;5100;45.176;5.714;2022-08-25T13:29:23;1.40;;;1.30;;
10120;SDS011;5100;45.176;5.714;2022-08-25T13:31:54;2.83;;;1.48;;
10120;SDS011;5100;45.176;5.714;2022-08-25T13:34:24;1.50;;;1.40;;
10120;SDS011;5100;45.176;5.714;2022-08-25T13:36:52;1.58;;;1.48;;
10120;SDS011;5100;45.176;5.714;2022-08-25T13:39:37;1.67;;;1.58;;
10120;SDS011;5100;45.176;5.714;2022-08-25T13:42:04;1.50;;;1.40;;
10120;SDS011;5100;45.176;5.714;2022-08-25T13:44:36;1.65;;;1.50;;
10120;SDS011;5100;45.176;5.714;2022-08-25T13:47:07;3.12;;;1.45;;
10120;SDS011;5100;45.176;5.714;2022-08-25T13:49:36;2.35;;;1.40;;
10120;SDS011;5100;45.176;5.714;2022-08-25T13:52:04;3.10;;;1.60;;
10120;SDS011;5100;45.176;5.714;2022-08-25T13:54:36;2.58;;;1.40;;
10120;SDS011;5100;45.176;5.714;2022-08-25T13:57:06;1.60;;;1.50;;
10120;SDS011;5100;45.176;5.714;2022-08-25T13:59:51;2.65;;;1.85;;
10120;SDS011;5100;45.176;5.714;2022-08-25T14:05:13;1.50;;;1.40;;
10120;SDS011;5100;45.176;5.714;2022-08-25T14:07:51;2.30;;;1.60;;
10120;SDS011;5100;45.176;5.714;2022-08-25T14:15:37;5.28;;;1.62;;
10120;SDS011;5100;45.176;5.714;2022-08-25T14:18:05;1.73;;;1.62;;
10120;SDS011;5100;45.176;5.714;2022-08-25T14:20:41;2.08;;;1.40;;
10120;SDS011;5100;45.176;5.714;2022-08-25T14:23:10;2.97;;;1.62;;
10120;SDS011;5100;45.176;5.714;2022-08-25T14:25:41;2.58;;;1.58;;
10120;SDS011;5100;45.176;5.714;2022-08-25T14:28:09;3.50;;;1.70;;
10120;SDS011;5100;45.176;5.714;2022-08-25T14:30:41;2.95;;;1.60;;
10120;SDS011;5100;45.176;5.714;2022-08-25T14:33:24;1.75;;;1.60;;
10120;SDS011;5100;45.176;5.714;2022-08-25T14:35:56;1.70;;;1.60;;
10120;SDS011;5100;45.176;5.714;2022-08-25T14:38:24;4.07;;;1.60;;
10120;SDS011;5100;45.176;5.714;2022-08-25T14:40:50;1.77;;;1.40;;
10120;SDS011;5100;45.176;5.714;2022-08-25T14:43:17;2.25;;;1.33;;
10120;SDS011;5100;45.176;5.714;2022-08-25T14:45:44;1.80;;;1.40;;
10120;SDS011;5100;45.176;5.714;2022-08-25T14:48:14;1.50;;;1.40;;
10120;SDS011;5100;45.176;5.714;2022-08-25T14:50:54;1.60;;;1.50;;
10120;SDS011;5100;45.176;5.714;2022-08-25T14:53:22;1.95;;;1.48;;
10120;SDS011;5100;45.176;5.714;2022-08-25T14:55:48;3.67;;;1.60;;
10120;SDS011;5100;45.176;5.714;2022-08-25T14:58:19;1.95;;;1.48;;
10120;SDS011;5100;45.176;5.714;2022-08-25T15:00:45;1.62;;;1.50;;
10120;SDS011;5100;45.176;5.714;2022-08-25T15:03:12;1.52;;;1.42;;
10120;SDS011;5100;45.176;5.714;2022-08-25T15:05:42;1.60;;;1.50;;
10120;SDS011;5100;45.176;5.714;2022-08-25T15:08:08;1.80;;;1.70;;
10120;SDS011;5100;45.176;5.714;2022-08-25T15:10:53;1.77;;;1.40;;
10120;SDS011;5100;45.176;5.714;2022-08-25T15:13:19;3.20;;;1.37;;
10120;SDS011;5100;45.176;5.714;2022-08-25T15:15:45;1.40;;;1.30;;
10120;SDS011;5100;45.176;5.714;2022-08-25T15:18:13;2.37;;;1.45;;
10120;SDS011;5100;45.176;5.714;2022-08-25T15:20:40;2.75;;;1.50;;
10120;SDS011;5100;45.176;5.714;2022-08-25T15:23:05;2.67;;;1.37;;
10120;SDS011;5100;45.176;5.714;2022-08-25T15:25:33;1.75;;;1.50;;
10120;SDS011;5100;45.176;5.714;2022-08-25T15:28:02;1.70;;;1.60;;
10120;SDS011;5100;45.176;5.714;2022-08-25T15:30:29;1.85;;;1.60;;
10120;SDS011;5100;45.176;5.714;2022-08-25T15:32:56;1.50;;;1.40;;
10120;SDS011;5100;45.176;5.714;2022-08-25T15:35:21;2.67;;;1.73;;
10120;SDS011;5100;45.176;5.714;2022-08-25T15:37:47;1.65;;;1.55;;
10120;SDS011;5100;45.176;5.714;2022-08-25T15:40:14;1.52;;;1.42;;
10120;SDS011;5100;45.176;5.714;2022-08-25T15:42:40;2.03;;;1.33;;
10120;SDS011;5100;45.176;5.714;2022-08-25T15:45:06;2.42;;;1.40;;
10120;SDS011;5100;45.176;5.714;2022-08-25T15:47:33;1.70;;;1.52;;
10120;SDS011;5100;45.176;5.714;2022-08-25T15:50:05;3.15;;;1.67;;
10120;SDS011;5100;45.176;5.714;2022-08-25T15:52:34;2.67;;;1.77;;
10120;SDS011;5100;45.176;5.714;2022-08-25T15:55:01;4.20;;;1.55;;
10120;SDS011;5100;45.176;5.714;2022-08-25T15:57:27;2.45;;;1.42;;
10120;SDS011;5100;45.176;5.714;2022-08-25T15:59:54;2.40;;;1.40;;
10120;SDS011;5100;45.176;5.714;2022-08-25T16:02:19;3.55;;;1.50;;
10120;SDS011;5100;45.176;5.714;2022-08-25T16:04:46;2.08;;;1.60;;
10120;SDS011;5100;45.176;5.714;2022-08-25T16:07:12;2.33;;;1.48;;
10120;SDS011;5100;45.176;5.714;2022-08-25T16:09:38;2.12;;;1.62;;
10120;SDS011;5100;45.176;5.714;2022-08-25T16:12:06;1.60;;;1.50;;
10120;SDS011;5100;45.176;5.714;2022-08-25T16:14:32;1.75;;;1.33;;
10120;SDS011;5100;45.176;5.714;2022-08-25T16:16:58;1.50;;;1.40;;
10120;SDS011;5100;45.176;5.714;2022-08-25T16:19:25;1.87;;;1.30;;
10120;SDS011;5100;45.176;5.714;2022-08-25T16:21:52;1.70;;;1.60;;
10120;SDS011;5100;45.176;5.714;2022-08-25T16:24:18;1.60;;;1.50;;
10120;SDS011;5100;45.176;5.714;2022-08-25T16:26:44;1.35;;;1.25;;
10120;SDS011;5100;45.176;5.714;2022-08-25T16:29:11;1.60;;;1.50;;
10120;SDS011;5100;45.176;5.714;2022-08-25T16:31:39;5.37;;;1.85;;
10120;SDS011;5100;45.176;5.714;2022-08-25T16:34:06;3.03;;;1.42;;
10120;SDS011;5100;45.176;5.714;2022-08-25T16:36:32;1.70;;;1.60;;
10120;SDS011;5100;45.176;5.714;2022-08-25T16:38:58;1.50;;;1.40;;
10120;SDS011;5100;45.176;5.714;2022-08-25T16:41:26;1.60;;;1.50;;
10120;SDS011;5100;45.176;5.714;2022-08-25T16:44:00;1.52;;;1.42;;
10120;SDS011;5100;45.176;5.714;2022-08-25T16:46:28;1.73;;;1.52;;
10120;SDS011;5100;45.176;5.714;2022-08-25T16:48:58;3.30;;;1.52;;
10120;SDS011;5100;45.176;5.714;2022-08-25T16:51:29;1.48;;;1.40;;
10120;SDS011;5100;45.176;5.714;2022-08-25T16:53:56;1.67;;;1.40;;
10120;SDS011;5100;45.176;5.714;2022-08-25T16:56:41;5.07;;;1.67;;
10120;SDS011;5100;45.176;5.714;2022-08-25T16:59:08;5.70;;;1.67;;
10120;SDS011;5100;45.176;5.714;2022-08-25T17:01:35;2.15;;;1.50;;
10120;SDS011;5100;45.176;5.714;2022-08-25T17:04:03;3.95;;;1.90;;
10120;SDS011;5100;45.176;5.714;2022-08-25T17:06:32;1.75;;;1.40;;
10120;SDS011;5100;45.176;5.714;2022-08-25T17:08:59;3.03;;;1.60;;